Time;durP1;ratioP1;P1;durP2;ratioP2;P2;SDS_P1;SDS_P2;PMS_P1;PMS_P2;Temp;Humidity;BMP_temperature;BMP_pressure;BME280_temperature;BME280_humidity;BME280_pressure;Samples;Min_cycle;Max_cycle;Signal;HPM_P1;HPM_P2
2023/07/01 00:00:51;;;;;;;15.27;5.32;;;;;;;21.62;68.86;100211.22;5015162;28;20444;-86
2023/07/01 00:07:40;;;;;;;6.28;3.67;;;;;;;21.87;68.24;100252.53;4994929;28;20035;-87
2023/07/01 00:10:08;;;;;;;6.70;4.15;;;;;;;21.56;67.77;100212.88;4881103;29;20100;-88
2023/07/01 00:12:34;;;;;;;8.30;3.85;;;;;;;21.71;67.11;100232.72;4859794;29;20037;-88
2023/07/01 00:14:59;;;;;;;10.73;4.18;;;;;;;21.58;67.10;100216.28;4859512;29;20525;-88
2023/07/01 00:17:25;;;;;;;10.57;4.68;;;;;;;21.66;67.15;100240.72;4844357;29;20438;-88
2023/07/01 00:19:50;;;;;;;20.10;4.55;;;;;;;21.51;67.30;100217.28;4859853;29;20052;-89
2023/07/01 00:22:56;;;;;;;21.42;5.40;;;;;;;21.77;67.30;100263.06;4859594;29;20570;-88
2023/07/01 00:25:23;;;;;;;11.73;4.00;;;;;;;21.46;67.18;100214.34;4860335;29;20049;-88
2023/07/01 00:27:49;;;;;;;20.58;5.60;;;;;;;21.42;67.74;100213.91;4843652;29;20056;-88
2023/07/01 00:30:14;;;;;;;7.15;5.00;;;;;;;21.33;69.00;100195.97;4859981;29;20060;-88
2023/07/01 00:32:40;;;;;;;15.00;5.93;;;;;;;21.43;69.74;100215.59;4859759;29;20034;-88
2023/07/01 00:42:01;;;;;;;12.88;5.45;;;;;;;21.58;71.21;100246.38;4935070;28;20050;-88
2023/07/01 00:44:27;;;;;;;24.00;6.55;;;;;;;21.35;71.14;100199.34;4934932;29;20107;-89
2023/07/01 00:46:52;;;;;;;11.65;5.07;;;;;;;21.36;71.17;100200.19;4946521;28;20522;-88
2023/07/01 00:56:15;;;;;;;12.35;6.80;;;;;;;21.36;73.01;100206.50;5012740;28;20049;-88
2023/07/01 00:58:40;;;;;;;13.00;6.35;;;;;;;21.22;73.11;100193.00;4996647;28;20034;-88
2023/07/01 01:01:10;;;;;;;11.45;7.05;;;;;;;21.27;73.28;100191.31;4971833;28;20039;-87
2023/07/01 01:03:48;;;;;;;22.90;8.27;;;;;;;21.41;72.87;100216.81;4972449;28;20101;-87
2023/07/01 01:09:47;;;;;;;42.72;8.70;;;;;;;21.35;72.30;100198.50;4973134;28;20105;-88
2023/07/01 01:12:14;;;;;;;34.85;6.72;;;;;;;21.44;71.15;100202.72;4973001;28;20039;-88
2023/07/01 01:14:42;;;;;;;14.90;5.38;;;;;;;21.52;70.27;100210.78;4975712;28;20518;-87
2023/07/01 01:17:28;;;;;;;18.42;5.53;;;;;;;21.38;68.99;100192.59;4981045;28;20038;-88
2023/07/01 01:20:13;;;;;;;10.02;4.68;;;;;;;21.64;67.45;100237.34;4978108;28;20538;-88
2023/07/01 03:35:56;;;;;;;28.00;12.10;;;;;;;20.81;70.73;100250.34;4989664;28;20089;-85
2023/07/01 03:38:22;;;;;;;27.95;11.65;;;;;;;20.83;70.72;100243.63;4990431;28;20545;-86
2023/07/01 03:40:47;;;;;;;16.88;8.45;;;;;;;20.77;70.20;100232.66;4992273;28;20057;-85
2023/07/01 03:43:13;;;;;;;29.42;8.85;;;;;;;20.66;70.11;100203.16;4980542;28;20100;-84
2023/07/01 03:45:38;;;;;;;24.15;8.43;;;;;;;20.78;69.41;100213.34;5001677;28;20041;-90
2023/07/01 03:48:05;;;;;;;19.75;7.22;;;;;;;21.11;68.78;100246.34;4978309;28;20117;-89
2023/07/01 03:50:30;;;;;;;23.88;6.85;;;;;;;21.28;68.44;100241.41;4992222;28;20030;-87
2023/07/01 03:52:56;;;;;;;14.95;5.93;;;;;;;21.39;67.51;100241.66;4995511;28;20034;-87
2023/07/01 03:55:22;;;;;;;15.00;5.95;;;;;;;21.41;67.28;100230.50;5011588;28;20082;-92
2023/07/01 03:57:47;;;;;;;12.30;5.75;;;;;;;21.45;66.87;100218.09;5015101;28;20022;-91
2023/07/01 04:00:19;;;;;;;17.48;5.10;;;;;;;21.64;66.09;100229.13;5015395;28;20061;-90
2023/07/01 04:02:49;;;;;;;13.32;4.97;;;;;;;21.66;65.92;100216.06;4998757;28;20042;-91
2023/07/01 04:05:15;;;;;;;20.85;6.50;;;;;;;21.88;65.35;100215.91;4992894;28;20046;-84
2023/07/01 04:07:43;;;;;;;11.45;4.70;;;;;;;22.00;64.76;100203.31;5009788;28;20030;-89
2023/07/01 04:10:13;;;;;;;24.38;5.93;;;;;;;22.09;63.72;100199.31;5005285;28;20046;-86
2023/07/01 04:12:39;;;;;;;7.75;4.50;;;;;;;22.32;63.43;100210.72;4995624;28;20117;-83
2023/07/01 04:15:09;;;;;;;10.35;4.63;;;;;;;22.52;62.67;100228.00;4992783;28;20046;-81
2023/07/01 04:17:42;;;;;;;28.92;5.57;;;;;;;22.72;62.05;100231.59;5004432;28;20038;-84
2023/07/01 04:20:09;;;;;;;15.00;4.47;;;;;;;22.87;61.03;100220.41;5005352;28;20121;-83
2023/07/01 04:22:35;;;;;;;12.73;3.72;;;;;;;22.88;60.81;100208.34;4995383;28;20046;-83
2023/07/01 04:25:01;;;;;;;35.50;6.63;;;;;;;22.91;60.10;100196.94;4993482;28;20113;-85
2023/07/01 04:27:27;;;;;;;26.48;6.68;;;;;;;23.11;60.46;100227.94;4993469;28;20040;-83
2023/07/01 04:29:52;;;;;;;31.75;7.90;;;;;;;23.08;60.34;100197.34;4992798;28;20490;-82
2023/07/01 04:32:18;;;;;;;41.33;8.07;;;;;;;23.26;59.43;100211.19;4993619;28;20544;-83
2023/07/01 04:34:44;;;;;;;47.88;10.15;;;;;;;23.41;59.55;100214.53;4994399;28;20038;-82
2023/07/01 04:37:10;;;;;;;46.90;9.93;;;;;;;23.51;59.11;100214.09;5002696;28;20438;-82
2023/07/01 04:39:35;;;;;;;14.18;5.38;;;;;;;23.58;58.76;100229.44;5015421;28;20026;-83
2023/07/01 04:42:02;;;;;;;22.40;7.13;;;;;;;23.54;59.21;100202.66;5015751;28;20061;-84
2023/07/01 04:44:32;;;;;;;31.35;7.70;;;;;;;23.86;59.22;100240.06;5015537;28;20030;-83
2023/07/01 04:46:58;;;;;;;37.33;9.95;;;;;;;23.77;59.17;100209.28;5015209;28;20061;-86
2023/07/01 04:49:23;;;;;;;25.25;9.25;;;;;;;24.09;59.49;100234.03;5015128;28;20038;-89
2023/07/01 04:51:49;;;;;;;27.55;10.32;;;;;;;24.25;59.45;100245.31;5011191;28;20034;-82
2023/07/01 04:54:14;;;;;;;37.00;10.05;;;;;;;24.31;59.29;100243.63;5010391;28;20072;-84
2023/07/01 04:56:40;;;;;;;40.65;11.75;;;;;;;24.12;59.22;100211.63;5008101;28;20034;-85
2023/07/01 04:59:06;;;;;;;61.47;16.23;;;;;;;24.35;59.43;100229.19;4957835;28;20105;-81
2023/07/01 05:01:31;;;;;;;37.08;16.38;;;;;;;24.27;59.07;100212.97;4949561;29;20047;-83
2023/07/01 05:03:57;;;;;;;33.40;16.50;;;;;;;24.28;59.91;100219.28;4954718;28;20106;-79
2023/07/01 05:06:22;;;;;;;51.55;16.13;;;;;;;24.43;59.76;100229.97;4952221;28;20095;-83
2023/07/01 05:08:47;;;;;;;46.40;16.08;;;;;;;24.48;59.60;100220.00;4969636;28;20077;-80
2023/07/01 05:11:13;;;;;;;45.42;14.50;;;;;;;24.61;59.51;100221.78;4967996;28;20058;-83
2023/07/01 05:13:38;;;;;;;66.38;17.48;;;;;;;24.71;59.72;100217.44;4968666;28;20039;-84
2023/07/01 05:16:05;;;;;;;39.58;13.02;;;;;;;24.84;59.35;100228.34;4968578;28;20081;-80
2023/07/01 05:18:30;;;;;;;43.60;14.07;;;;;;;24.96;59.60;100224.84;4968141;28;20543;-83
2023/07/01 05:20:56;;;;;;;62.33;14.73;;;;;;;24.92;59.50;100199.72;4967694;28;20038;-81
2023/07/01 05:23:21;;;;;;;31.65;10.40;;;;;;;25.18;58.92;100231.56;4967870;28;20050;-84
2023/07/01 05:25:47;;;;;;;35.95;11.95;;;;;;;25.22;58.51;100221.81;4968255;28;20241;-83
2023/07/01 05:28:12;;;;;;;25.70;10.25;;;;;;;25.40;58.01;100228.13;4966057;28;20125;-89
2023/07/01 05:30:38;;;;;;;31.17;13.30;;;;;;;25.52;57.12;100225.47;4979188;28;20054;-81
2023/07/01 05:33:04;;;;;;;35.38;15.88;;;;;;;25.69;56.97;100237.53;5006210;28;20038;-86
2023/07/01 05:35:30;;;;;;;42.90;18.25;;;;;;;25.74;56.55;100232.19;5008322;28;20092;-91
2023/07/01 05:37:55;;;;;;;43.95;16.85;;;;;;;25.85;56.29;100241.53;5016931;28;20050;-91
2023/07/01 05:40:21;;;;;;;38.47;17.38;;;;;;;25.94;55.92;100238.22;5016741;28;20049;-94
2023/07/01 05:42:46;;;;;;;47.28;15.80;;;;;;;26.02;55.78;100230.72;5001804;28;20034;-95
2023/07/01 05:45:12;;;;;;;35.47;17.05;;;;;;;26.16;55.38;100238.56;4994412;28;20053;-87
2023/07/01 05:47:38;;;;;;;42.35;17.42;;;;;;;26.23;54.51;100232.97;4989500;28;20037;-87
2023/07/01 05:50:05;;;;;;;33.45;15.85;;;;;;;26.31;53.05;100235.38;5004449;28;20038;-88
2023/07/01 05:52:30;;;;;;;41.08;18.38;;;;;;;26.35;53.63;100225.56;5012009;28;20037;-92
2023/07/01 05:54:59;;;;;;;37.05;18.50;;;;;;;26.45;53.33;100231.34;5020370;28;20025;-84
2023/07/01 05:57:24;;;;;;;55.88;19.77;;;;;;;26.46;53.11;100217.28;4998805;28;20457;-90
2023/07/01 05:59:50;;;;;;;42.95;13.95;;;;;;;26.48;52.58;100211.56;5014827;28;20049;-84
2023/07/01 06:02:15;;;;;;;31.52;12.82;;;;;;;26.42;51.35;100204.22;5013781;28;20502;-88
2023/07/01 06:04:41;;;;;;;31.75;13.85;;;;;;;26.60;51.44;100220.69;4993950;28;20033;-90
2023/07/01 06:07:06;;;;;;;29.48;12.52;;;;;;;26.71;51.57;100222.59;4998672;28;20518;-92
2023/07/01 06:09:32;;;;;;;20.42;11.88;;;;;;;26.78;50.09;100230.75;4994679;28;20045;-85
2023/07/01 06:11:57;;;;;;;27.85;13.43;;;;;;;26.77;50.39;100210.59;5008816;28;20038;-92
2023/07/01 06:14:26;;;;;;;25.48;9.52;;;;;;;26.90;48.88;100221.41;4996732;28;20065;-96
2023/07/01 06:16:51;;;;;;;29.92;7.13;;;;;;;26.90;47.61;100206.78;4995117;28;20038;-85
2023/07/01 06:19:17;;;;;;;19.67;5.57;;;;;;;26.97;46.95;100202.78;4993191;28;20816;-84
2023/07/01 06:21:42;;;;;;;13.10;5.35;;;;;;;27.01;45.89;100192.94;5016933;28;20101;-84
2023/07/01 06:24:08;;;;;;;11.07;5.70;;;;;;;27.10;45.09;100198.94;5009570;28;20042;-86
2023/07/01 06:26:33;;;;;;;20.25;5.82;;;;;;;27.20;44.92;100207.44;5012408;28;20034;-87
2023/07/01 06:28:59;;;;;;;12.80;5.00;;;;;;;27.35;44.65;100215.22;5015943;28;20041;-92
2023/07/01 06:31:24;;;;;;;11.52;5.40;;;;;;;27.41;44.10;100205.94;5016556;28;20097;-83
2023/07/01 06:33:49;;;;;;;14.40;3.35;;;;;;;27.51;42.55;100218.09;5015218;28;20047;-87
2023/07/01 06:36:17;;;;;;;12.15;2.80;;;;;;;27.58;42.57;100204.13;5012163;28;20046;-85
2023/07/01 06:38:43;;;;;;;12.38;2.95;;;;;;;27.76;42.12;100209.47;5012296;28;20042;-88
2023/07/01 06:41:09;;;;;;;10.15;3.40;;;;;;;27.76;42.12;100190.13;5013619;28;20510;-88
2023/07/01 06:43:40;;;;;;;13.02;3.70;;;;;;;27.72;41.82;100175.13;5015113;28;20045;-89
2023/07/01 06:46:06;;;;;;;13.57;3.53;;;;;;;27.83;40.86;100174.19;5015906;28;20045;-89
2023/07/01 06:48:32;;;;;;;20.85;4.10;;;;;;;27.98;40.40;100182.78;4999829;28;20030;-90
2023/07/01 06:50:57;;;;;;;12.82;5.28;;;;;;;27.98;42.04;100174.47;5014688;28;20383;-88
2023/07/01 06:53:25;;;;;;;45.92;8.82;;;;;;;27.87;46.32;100180.91;5021521;28;20044;-88
2023/07/01 06:55:51;;;;;;;34.88;10.52;;;;;;;27.90;47.78;100177.66;5013736;28;20231;-87
2023/07/01 06:58:16;;;;;;;34.58;11.40;;;;;;;27.76;48.74;100175.47;5013932;28;20120;-89
2023/07/01 07:00:43;;;;;;;25.42;11.00;;;;;;;27.86;49.58;100186.69;5015826;28;20415;-93
2023/07/01 07:03:10;;;;;;;13.63;7.18;;;;;;;27.66;50.36;100180.78;5015575;28;20068;-91
2023/07/01 07:05:35;;;;;;;28.45;6.82;;;;;;;27.91;51.70;100212.53;5014637;28;20053;-87
2023/07/01 07:08:01;;;;;;;21.88;5.85;;;;;;;27.83;52.34;100203.75;5011561;28;20046;-87
2023/07/01 07:10:27;;;;;;;31.25;6.65;;;;;;;27.87;52.46;100208.56;4994564;28;20605;-87
2023/07/01 07:12:52;;;;;;;24.25;6.70;;;;;;;27.84;52.20;100203.53;4994140;28;20161;-87
2023/07/01 07:15:18;;;;;;;10.45;5.05;;;;;;;27.76;52.23;100200.34;5011587;28;20046;-89
2023/07/01 07:17:44;;;;;;;44.85;7.57;;;;;;;27.86;54.25;100219.84;5002079;28;20073;-87
2023/07/01 07:20:10;;;;;;;22.85;6.88;;;;;;;27.76;55.06;100209.47;5013541;28;20041;-87
2023/07/01 07:22:35;;;;;;;16.70;7.82;;;;;;;27.86;56.15;100212.41;4995186;28;20493;-89
2023/07/01 07:25:01;;;;;;;14.00;5.05;;;;;;;27.76;54.60;100220.53;5011863;28;20100;-85
2023/07/01 07:27:26;;;;;;;99.57;13.05;;;;;;;27.76;55.62;100217.75;5009762;28;20719;-88
2023/07/01 07:29:51;;;;;;;14.23;6.07;;;;;;;27.86;55.60;100222.63;5010251;28;20506;-86
2023/07/01 07:32:17;;;;;;;14.02;5.78;;;;;;;27.84;57.13;100222.88;5010249;28;20038;-85
2023/07/01 07:34:43;;;;;;;67.53;10.40;;;;;;;27.84;56.57;100219.28;5010149;28;20437;-85
2023/07/01 07:37:08;;;;;;;27.17;5.25;;;;;;;27.81;55.52;100209.56;5010515;28;20460;-85
2023/07/01 07:39:33;;;;;;;15.23;4.38;;;;;;;27.82;54.68;100222.31;5010772;28;20038;-88
2023/07/01 07:41:59;;;;;;;13.73;5.40;;;;;;;27.79;55.68;100228.31;5011139;28;20038;-86
2023/07/01 07:44:27;;;;;;;14.68;5.00;;;;;;;27.73;56.68;100223.78;5010407;28;20065;-86
2023/07/01 07:46:57;;;;;;;33.47;5.55;;;;;;;27.52;56.88;100218.94;5013061;28;20105;-87
2023/07/01 07:49:22;;;;;;;19.80;5.22;;;;;;;27.57;57.05;100224.56;4993780;28;20045;-85
2023/07/01 07:51:48;;;;;;;13.45;5.97;;;;;;;27.63;56.13;100229.09;5010985;28;20484;-85
2023/07/01 07:54:13;;;;;;;13.05;4.75;;;;;;;27.69;55.19;100233.63;5011726;28;20030;-85
2023/07/01 07:56:39;;;;;;;43.78;7.20;;;;;;;27.54;55.37;100208.47;5011707;28;20038;-86
2023/07/01 07:59:04;;;;;;;27.38;5.65;;;;;;;27.71;55.31;100231.47;5010864;28;20040;-87
2023/07/01 08:01:30;;;;;;;31.55;5.82;;;;;;;27.54;53.88;100219.53;4969008;28;20046;-87
2023/07/01 08:03:55;;;;;;;11.70;3.88;;;;;;;27.61;53.36;100220.22;4969123;28;20035;-87
2023/07/01 08:06:21;;;;;;;21.80;4.65;;;;;;;27.56;53.11;100223.72;4969938;28;20422;-87
2023/07/01 08:08:46;;;;;;;13.88;3.72;;;;;;;27.57;53.24;100224.56;4969792;28;20042;-86
2023/07/01 08:11:11;;;;;;;17.15;4.97;;;;;;;27.49;53.82;100219.44;4969326;28;20416;-86
2023/07/01 08:13:37;;;;;;;7.30;3.38;;;;;;;27.31;52.09;100211.25;4968429;28;20467;-87
2023/07/01 08:16:04;;;;;;;12.68;3.78;;;;;;;27.22;53.81;100212.72;4970122;28;20166;-87
2023/07/01 08:18:30;;;;;;;16.92;4.05;;;;;;;27.31;53.11;100206.56;4965308;28;20053;-85
2023/07/01 08:20:56;;;;;;;6.82;3.65;;;;;;;27.29;52.81;100210.66;4970151;28;20129;-86
2023/07/01 08:23:21;;;;;;;12.57;3.95;;;;;;;27.29;52.83;100202.38;4969484;28;20026;-87
2023/07/01 08:25:47;;;;;;;15.82;3.58;;;;;;;27.43;52.69;100212.13;4969968;28;20057;-87
2023/07/01 08:28:12;;;;;;;6.55;3.50;;;;;;;27.40;52.58;100212.56;4971660;28;20035;-87
2023/07/01 08:30:38;;;;;;;3.95;3.08;;;;;;;27.44;52.14;100208.25;4973163;28;20076;-87
2023/07/01 08:33:03;;;;;;;14.30;3.70;;;;;;;27.39;51.21;100206.22;5004057;28;20034;-84
2023/07/01 08:35:30;;;;;;;30.35;5.45;;;;;;;27.52;51.05;100217.00;5020003;28;20046;-86
2023/07/01 08:37:55;;;;;;;16.63;3.60;;;;;;;27.51;51.04;100220.84;5014580;28;20092;-87
2023/07/01 08:40:21;;;;;;;15.90;4.13;;;;;;;27.41;50.97;100209.56;5036280;28;20065;-85
2023/07/01 08:42:49;;;;;;;9.30;3.88;;;;;;;27.58;50.17;100215.19;5019682;28;20030;-87
2023/07/01 08:45:15;;;;;;;10.40;3.55;;;;;;;27.57;50.70;100205.22;5036056;28;20038;-89
2023/07/01 08:47:41;;;;;;;18.27;3.85;;;;;;;27.53;50.11;100206.78;5033993;28;20054;-87
2023/07/01 08:50:08;;;;;;;12.98;3.22;;;;;;;27.60;50.90;100206.63;5033211;28;20038;-87
2023/07/01 08:52:46;;;;;;;6.57;3.10;;;;;;;27.70;48.74;100206.84;5016112;28;20030;-88
2023/07/01 08:55:12;;;;;;;33.50;4.68;;;;;;;27.81;50.46;100204.03;5014070;28;20042;-88
2023/07/01 08:57:41;;;;;;;12.82;4.95;;;;;;;27.87;50.45;100210.50;5013788;28;20529;-86
2023/07/01 09:00:12;;;;;;;10.23;3.58;;;;;;;27.90;51.25;100208.06;5012336;28;20048;-96
2023/07/01 09:02:39;;;;;;;47.97;6.45;;;;;;;27.65;51.43;100171.66;5014611;28;20040;-95
2023/07/01 09:05:11;;;;;;;16.70;4.72;;;;;;;27.50;53.48;100163.91;4970810;29;20051;-95
2023/07/01 09:07:37;;;;;;;4.60;3.20;;;;;;;27.76;54.07;100198.41;4954821;29;20032;-95
2023/07/01 09:10:03;;;;;;;11.45;3.92;;;;;;;27.63;54.78;100167.47;4951225;29;20039;-95
2023/07/01 09:12:32;;;;;;;13.63;4.07;;;;;;;27.70;55.27;100166.25;4945077;29;20041;-96
2023/07/01 09:14:58;;;;;;;18.48;4.43;;;;;;;27.68;53.31;100165.63;4958487;29;20691;-92
2023/07/01 09:17:42;;;;;;;11.02;4.00;;;;;;;27.66;54.30;100178.03;4942688;29;20048;-92
2023/07/01 09:20:12;;;;;;;12.18;4.07;;;;;;;27.76;54.12;100198.41;4954397;29;20039;-85
2023/07/01 09:22:40;;;;;;;9.55;3.60;;;;;;;27.88;52.85;100201.97;4959319;28;20566;-93
2023/07/01 09:25:06;;;;;;;12.50;3.83;;;;;;;27.93;51.33;100190.97;4974933;28;20043;-91
2023/07/01 09:27:46;;;;;;;13.85;4.28;;;;;;;28.04;53.04;100198.41;4950131;28;20044;-95
2023/07/01 09:30:20;;;;;;;14.85;4.88;;;;;;;28.06;51.68;100185.19;4940179;29;20055;-95
2023/07/01 09:32:46;;;;;;;9.95;3.65;;;;;;;28.15;51.57;100196.66;4903704;29;20040;-95
2023/07/01 09:35:12;;;;;;;15.65;5.00;;;;;;;27.96;53.45;100187.72;4917933;29;20044;-94
2023/07/01 09:37:41;;;;;;;20.95;5.38;;;;;;;28.07;54.76;100191.56;4917915;29;20071;-93
2023/07/01 09:40:21;;;;;;;27.88;6.70;;;;;;;28.05;57.44;100191.78;4919140;29;20048;-92
2023/07/01 09:42:51;;;;;;;9.27;4.78;;;;;;;27.92;58.42;100155.31;4944630;28;20043;-94
2023/07/01 09:45:17;;;;;;;11.73;4.18;;;;;;;28.05;57.00;100175.19;4960230;28;20415;-91
2023/07/01 09:47:42;;;;;;;16.75;5.10;;;;;;;28.02;60.02;100158.22;4976061;28;20039;-91
2023/07/01 09:50:22;;;;;;;21.15;4.97;;;;;;;28.04;59.33;100159.69;4977808;28;20094;-89
2023/07/01 09:52:57;;;;;;;15.05;4.53;;;;;;;28.22;60.55;100174.38;4964868;28;20046;-90
2023/07/01 09:55:32;;;;;;;3.97;3.60;;;;;;;28.04;60.46;100176.28;4960793;28;20043;-88
2023/07/01 09:57:58;;;;;;;7.47;4.63;;;;;;;28.20;60.70;100188.44;4981998;28;20163;-85
2023/07/01 10:00:48;;;;;;;15.13;5.68;;;;;;;28.18;55.23;100193.41;4998978;28;20053;-88
2023/07/01 10:03:18;;;;;;;17.95;4.20;;;;;;;28.13;56.35;100173.97;5009101;28;20047;-85
2023/07/01 10:05:46;;;;;;;13.88;4.57;;;;;;;28.28;51.51;100198.28;5010380;28;20036;-94
2023/07/01 10:08:12;;;;;;;11.63;4.32;;;;;;;28.41;52.90;100181.31;5015169;28;20516;-91
2023/07/01 10:10:37;;;;;;;8.50;4.32;;;;;;;28.29;56.42;100175.03;5016405;28;20038;-85
2023/07/01 10:13:05;;;;;;;28.08;5.05;;;;;;;28.40;57.52;100182.44;5017044;28;20041;-92
2023/07/01 10:15:35;;;;;;;13.95;4.25;;;;;;;28.23;51.58;100184.34;5001242;28;20589;-90
2023/07/01 10:18:01;;;;;;;9.88;4.32;;;;;;;28.30;53.59;100160.97;4994623;28;20531;-89
2023/07/01 10:20:28;;;;;;;6.32;4.00;;;;;;;28.62;52.84;100178.63;4996927;28;20147;-83
2023/07/01 10:22:57;;;;;;;14.50;4.60;;;;;;;28.80;53.86;100179.47;5016611;28;20121;-90
2023/07/01 10:25:35;;;;;;;10.10;4.20;;;;;;;28.91;52.01;100178.53;4998566;28;20045;-84
2023/07/01 10:28:00;;;;;;;4.30;3.65;;;;;;;28.93;51.02;100163.31;5000402;28;20164;-90
2023/07/01 10:30:48;;;;;;;6.28;4.38;;;;;;;28.93;51.80;100168.00;4997508;28;20137;-82
2023/07/01 10:33:39;;;;;;;20.60;5.28;;;;;;;28.94;49.34;100176.09;4957247;28;20484;-84
2023/07/01 10:36:09;;;;;;;6.93;4.40;;;;;;;28.92;49.73;100169.97;4975684;28;20136;-86
2023/07/01 10:38:37;;;;;;;5.90;4.07;;;;;;;28.98;49.04;100165.34;4966614;28;20046;-84
2023/07/01 10:41:04;;;;;;;54.13;7.35;;;;;;;28.89;48.85;100158.56;4972492;28;20039;-87
2023/07/01 10:43:33;;;;;;;10.95;3.97;;;;;;;28.65;49.98;100123.91;4979471;28;20110;-87
2023/07/01 10:46:07;;;;;;;9.25;3.88;;;;;;;28.71;49.21;100145.03;4983127;28;20074;-89
2023/07/01 10:48:33;;;;;;;19.05;4.72;;;;;;;28.68;49.54;100138.06;4986902;28;20053;-86
2023/07/01 10:51:03;;;;;;;6.25;3.47;;;;;;;28.82;51.56;100150.44;4974751;28;20138;-80
2023/07/01 10:53:30;;;;;;;11.30;4.35;;;;;;;28.83;53.04;100163.19;4978554;28;20051;-82
2023/07/01 10:56:13;;;;;;;9.23;4.55;;;;;;;28.86;54.06;100172.91;4976570;28;20110;-86
2023/07/01 10:58:41;;;;;;;6.88;4.43;;;;;;;28.95;54.57;100163.94;4966064;28;20442;-83
2023/07/01 11:01:06;;;;;;;10.48;4.32;;;;;;;29.08;55.01;100155.22;4949995;28;20038;-79
2023/07/01 11:03:35;;;;;;;17.02;4.43;;;;;;;28.98;55.99;100159.81;4966754;28;20197;-86
2023/07/01 11:06:06;;;;;;;21.85;4.97;;;;;;;29.01;56.53;100160.13;4965616;28;20039;-85
2023/07/01 11:08:37;;;;;;;9.80;5.50;;;;;;;28.93;56.33;100146.72;4968339;28;20106;-84
2023/07/01 11:11:03;;;;;;;14.90;5.70;;;;;;;28.90;56.69;100150.00;5000615;28;20076;-82
2023/07/01 11:13:28;;;;;;;7.40;4.63;;;;;;;29.07;56.30;100150.78;5005958;28;20077;-81
2023/07/01 11:16:03;;;;;;;16.67;5.30;;;;;;;29.12;56.06;100150.84;5009274;28;20575;-85
2023/07/01 11:18:41;;;;;;;19.08;5.68;;;;;;;29.13;55.48;100149.75;5009471;28;20030;-87
2023/07/01 11:21:10;;;;;;;9.35;4.55;;;;;;;29.27;54.25;100149.38;5002759;28;20052;-85
2023/07/01 11:23:36;;;;;;;10.43;4.95;;;;;;;29.26;54.66;100139.41;5017660;28;20057;-92
2023/07/01 11:26:02;;;;;;;8.82;5.65;;;;;;;29.21;54.59;100136.53;5013297;28;20048;-82
2023/07/01 11:28:35;;;;;;;9.43;4.00;;;;;;;29.31;55.37;100147.78;4996805;28;20128;-91
2023/07/01 11:31:23;;;;;;;12.20;4.10;;;;;;;29.43;54.08;100123.53;5014478;28;20104;-89
2023/07/01 11:33:50;;;;;;;8.00;4.32;;;;;;;29.62;53.81;100128.47;5014870;28;20030;-90
2023/07/01 11:36:18;;;;;;;13.65;4.75;;;;;;;29.88;52.53;100129.56;5014405;28;20046;-91
2023/07/01 11:38:45;;;;;;;12.15;4.63;;;;;;;30.08;51.08;100138.09;5014983;28;20030;-90
2023/07/01 11:41:19;;;;;;;9.45;4.07;;;;;;;30.06;50.23;100129.19;5014380;28;20121;-90
2023/07/01 11:43:45;;;;;;;11.15;3.60;;;;;;;29.91;50.72;100131.81;5015285;28;20029;-89
2023/07/01 11:46:12;;;;;;;10.93;4.15;;;;;;;29.79;51.78;100144.97;5015395;28;20125;-89
2023/07/01 11:48:39;;;;;;;7.55;4.20;;;;;;;29.54;51.83;100094.84;5014568;28;20092;-89
2023/07/01 11:51:05;;;;;;;7.03;3.95;;;;;;;29.67;51.79;100091.63;5014790;28;20529;-88
2023/07/01 11:53:30;;;;;;;16.85;4.65;;;;;;;29.59;51.06;100083.81;5015384;28;20057;-90
2023/07/01 11:55:56;;;;;;;13.05;4.53;;;;;;;29.63;51.41;100109.91;5018122;28;20062;-88
2023/07/01 11:58:28;;;;;;;20.80;5.45;;;;;;;29.65;51.80;100091.06;5021721;28;20034;-87
2023/07/01 12:00:54;;;;;;;7.32;4.22;;;;;;;29.85;51.33;100134.81;4998248;28;20040;-89
2023/07/01 12:03:20;;;;;;;13.02;4.47;;;;;;;29.88;51.41;100107.38;4998073;28;20030;-88
2023/07/01 12:05:46;;;;;;;8.48;4.03;;;;;;;29.95;51.44;100126.59;4996609;28;20042;-90
2023/07/01 12:08:11;;;;;;;15.93;5.90;;;;;;;29.68;50.83;100099.69;5015960;28;20026;-91
2023/07/01 12:10:38;;;;;;;8.15;5.30;;;;;;;29.91;50.85;100115.19;5019953;28;20045;-90
2023/07/01 12:13:05;;;;;;;10.68;4.60;;;;;;;29.79;50.78;100105.31;5033063;28;20034;-92
2023/07/01 12:15:32;;;;;;;12.70;4.03;;;;;;;29.65;51.81;100099.38;5015044;28;20044;-90
2023/07/01 12:18:20;;;;;;;8.27;4.32;;;;;;;30.08;52.02;100104.81;5019293;28;20034;-90
2023/07/01 12:20:46;;;;;;;15.38;3.85;;;;;;;29.95;52.01;100098.84;5029668;28;20037;-90
2023/07/01 12:23:11;;;;;;;18.90;4.18;;;;;;;29.87;52.87;100097.41;5029362;28;20089;-93
2023/07/01 12:25:37;;;;;;;42.95;6.97;;;;;;;30.00;52.19;100093.38;5033965;28;20806;-91
2023/07/01 12:28:04;;;;;;;11.70;4.10;;;;;;;29.95;51.18;100098.84;5022422;28;20030;-91
2023/07/01 12:30:30;;;;;;;11.60;4.40;;;;;;;29.99;51.67;100084.22;5021969;28;20080;-90
2023/07/01 12:32:56;;;;;;;13.10;5.15;;;;;;;30.15;51.10;100072.09;5027569;28;20029;-91
2023/07/01 12:35:25;;;;;;;13.43;3.88;;;;;;;30.53;50.57;100089.59;5017704;28;20041;-89
2023/07/01 12:37:58;;;;;;;8.45;3.95;;;;;;;30.08;50.43;100054.88;5035171;28;20064;-91
2023/07/01 12:40:27;;;;;;;10.40;4.32;;;;;;;30.04;50.53;100103.66;5034747;28;20077;-89
2023/07/01 12:42:53;;;;;;;44.30;6.00;;;;;;;29.87;51.19;100094.66;5035134;28;20064;-96
2023/07/01 12:45:22;;;;;;;4.50;3.65;;;;;;;29.31;52.73;100065.50;5017196;28;20042;-92
2023/07/01 12:47:48;;;;;;;8.95;4.32;;;;;;;29.35;53.82;100088.00;5017180;28;20144;-88
2023/07/01 12:50:13;;;;;;;19.00;4.88;;;;;;;29.32;54.60;100077.44;5034805;28;20037;-95
2023/07/01 12:52:39;;;;;;;12.00;4.75;;;;;;;29.64;53.74;100084.69;5035227;28;20057;-92
2023/07/01 12:55:11;;;;;;;8.88;4.30;;;;;;;29.68;53.52;100088.63;5035025;28;20084;-89
2023/07/01 12:57:38;;;;;;;6.65;4.60;;;;;;;29.34;54.71;100069.69;5033053;28;20705;-89
2023/07/01 13:00:05;;;;;;;12.20;4.35;;;;;;;29.34;55.31;100091.84;5032634;28;20038;-89
2023/07/01 13:02:34;;;;;;;12.45;4.30;;;;;;;29.35;55.14;100060.28;5026180;28;20038;-91
2023/07/01 13:05:02;;;;;;;9.98;5.65;;;;;;;29.35;54.97;100060.28;5025216;28;20077;-90
2023/07/01 13:07:29;;;;;;;18.42;5.47;;;;;;;29.42;56.55;100110.75;5017854;28;20046;-89
2023/07/01 13:09:58;;;;;;;18.23;5.40;;;;;;;29.64;55.61;100075.53;5016740;28;20050;-89
2023/07/01 13:12:25;;;;;;;13.40;5.78;;;;;;;29.93;55.07;100090.81;5019131;28;20374;-90
2023/07/01 13:14:56;;;;;;;13.57;4.75;;;;;;;29.81;54.88;100092.91;5000744;28;20458;-88
2023/07/01 13:17:37;;;;;;;27.77;5.82;;;;;;;29.86;55.72;100079.09;5021961;28;20038;-90
2023/07/01 13:20:05;;;;;;;17.95;5.70;;;;;;;29.95;55.64;100076.66;5034160;28;20084;-89
2023/07/01 13:22:30;;;;;;;10.10;5.38;;;;;;;29.99;55.60;100064.78;5035163;28;20044;-93
2023/07/01 13:24:56;;;;;;;13.10;5.70;;;;;;;30.08;56.04;100065.97;5035496;28;20058;-94
2023/07/01 13:27:21;;;;;;;23.02;6.80;;;;;;;30.16;56.30;100068.25;5036093;28;20085;-92
2023/07/01 13:29:47;;;;;;;9.35;4.40;;;;;;;30.22;56.03;100067.16;5036191;28;20022;-90
2023/07/01 13:32:12;;;;;;;20.55;5.28;;;;;;;30.24;56.02;100053.84;5018134;28;20038;-90
2023/07/01 13:34:43;;;;;;;15.85;5.03;;;;;;;30.24;55.98;100059.41;5021225;28;20050;-88
2023/07/01 13:37:13;;;;;;;17.02;5.43;;;;;;;30.19;56.09;100055.75;5023004;28;20065;-89
2023/07/01 13:39:44;;;;;;;13.38;3.78;;;;;;;30.01;56.87;100043.16;5031265;28;20087;-89
2023/07/01 13:42:16;;;;;;;12.82;5.18;;;;;;;29.66;58.75;100054.75;5007805;28;20509;-91
2023/07/01 13:44:51;;;;;;;8.55;4.05;;;;;;;29.81;58.99;100059.63;5023111;28;20518;-92
2023/07/01 13:47:42;;;;;;;7.85;4.07;;;;;;;29.55;60.03;100061.31;5022675;28;20478;-92
2023/07/01 13:50:08;;;;;;;20.23;4.95;;;;;;;29.47;60.77;100074.81;5003735;28;20664;-91
2023/07/01 13:52:39;;;;;;;13.63;3.90;;;;;;;29.59;60.40;100079.09;5021546;28;20407;-90
2023/07/01 13:55:08;;;;;;;13.10;3.88;;;;;;;29.77;59.29;100079.81;5003689;28;20098;-89